Time;durP1;ratioP1;P1;durP2;ratioP2;P2;SDS_P1;SDS_P2;PMS_P1;PMS_P2;Temp;Humidity;BMP_temperature;BMP_pressure;BME280_temperature;BME280_humidity;BME280_pressure;Samples;Min_cycle;Max_cycle;Signal;HPM_P1;HPM_P2
2021/01/03 00:01:10;;;;;;;180.18;101.65;;;;;;;3.67;87.31;100581.80;1661308;84;25881;-81
2021/01/03 00:03:39;;;;;;;162.18;92.08;;;;;;;3.70;87.27;100574.62;1674129;84;26424;-81
2021/01/03 00:06:08;;;;;;;179.97;101.80;;;;;;;3.73;87.13;100574.86;1684215;84;25913;-82
2021/01/03 00:08:35;;;;;;;168.15;95.72;;;;;;;3.72;87.00;100584.86;1659997;84;25347;-82
2021/01/03 00:11:02;;;;;;;161.68;89.30;;;;;;;3.67;86.83;100578.73;1660983;84;26440;-80
2021/01/03 00:13:28;;;;;;;156.90;90.30;;;;;;;3.61;86.70;100577.09;1646203;85;25832;-81
2021/01/03 00:15:55;;;;;;;166.30;93.20;;;;;;;3.60;86.67;100582.73;1643327;85;25840;-80
2021/01/03 00:18:21;;;;;;;149.77;90.90;;;;;;;3.60;86.84;100574.14;1637567;86;25835;-81
2021/01/03 00:20:48;;;;;;;141.15;85.97;;;;;;;3.56;86.79;100571.78;1653558;85;25884;-81
2021/01/03 00:23:14;;;;;;;140.20;78.35;;;;;;;3.51;86.88;100554.50;1643167;85;25915;-81
2021/01/03 00:25:41;;;;;;;165.18;90.83;;;;;;;3.54;86.84;100561.20;1643923;85;25926;-81
2021/01/03 00:28:07;;;;;;;162.00;90.77;;;;;;;3.48;86.75;100561.67;1645056;85;26239;-81
2021/01/03 00:30:33;;;;;;;163.47;88.97;;;;;;;3.36;86.61;100567.77;1644741;85;25748;-81
2021/01/03 00:33:00;;;;;;;147.93;88.65;;;;;;;3.36;86.61;100567.77;1643164;85;25765;-80
2021/01/03 00:35:32;;;;;;;139.77;81.55;;;;;;;3.32;86.93;100573.60;1644438;85;26294;-81
2021/01/03 00:38:10;;;;;;;129.53;74.82;;;;;;;3.33;87.02;100585.13;1641320;85;26268;-81
2021/01/03 00:40:38;;;;;;;129.38;75.03;;;;;;;3.31;87.00;100589.58;1641728;85;26304;-81
2021/01/03 00:43:07;;;;;;;116.90;69.40;;;;;;;3.30;87.09;100599.56;1643045;85;25728;-81
2021/01/03 00:45:33;;;;;;;111.90;64.00;;;;;;;3.30;87.09;100599.56;1645315;85;25778;-81
2021/01/03 00:48:04;;;;;;;165.25;83.50;;;;;;;3.26;86.93;100594.25;1645538;85;25805;-81
2021/01/03 00:50:30;;;;;;;172.17;89.52;;;;;;;3.20;86.73;100594.70;1644719;84;25880;-81
2021/01/03 00:52:56;;;;;;;128.10;72.95;;;;;;;3.23;87.15;100598.83;1649338;85;25875;-81
2021/01/03 00:55:23;;;;;;;121.50;71.90;;;;;;;3.24;87.18;100589.66;1645240;85;25870;-81
2021/01/03 00:57:49;;;;;;;138.18;77.03;;;;;;;3.14;87.11;100561.59;1646638;85;25823;-83
2021/01/03 01:00:22;;;;;;;148.30;82.60;;;;;;;3.29;87.19;100581.58;1645288;85;26387;-82
2021/01/03 01:02:48;;;;;;;134.50;74.40;;;;;;;3.27;87.06;100583.45;1647141;85;25804;-81
2021/01/03 01:05:17;;;;;;;134.60;74.80;;;;;;;3.30;87.17;100583.22;1647281;85;25876;-82
2021/01/03 01:07:44;;;;;;;103.42;60.83;;;;;;;3.33;87.12;100583.84;1643751;85;25756;-82
2021/01/03 01:10:16;;;;;;;133.67;76.82;;;;;;;3.33;87.08;100579.14;1645323;85;25925;-81
2021/01/03 01:13:01;;;;;;;129.50;75.78;;;;;;;3.31;87.01;100581.01;1658294;85;25804;-81
2021/01/03 01:15:25;;;;;;;127.27;71.50;;;;;;;3.31;87.03;100584.88;1649775;84;25827;-83
2021/01/03 01:17:56;;;;;;;122.25;70.70;;;;;;;3.23;86.88;100580.27;1662133;84;26360;-81
2021/01/03 01:20:26;;;;;;;127.27;72.50;;;;;;;3.22;87.02;100579.08;1663530;84;25733;-81
2021/01/03 01:22:54;;;;;;;121.47;68.02;;;;;;;3.13;87.22;100570.25;1659367;84;25831;-81
2021/01/03 01:25:25;;;;;;;109.42;65.65;;;;;;;3.13;87.22;100570.25;1667653;84;25972;-82
2021/01/03 01:27:55;;;;;;;111.95;66.07;;;;;;;3.03;87.16;100564.95;1659057;84;25902;-82
2021/01/03 01:30:24;;;;;;;108.63;61.83;;;;;;;3.07;87.22;100569.41;1665155;84;25646;-82
2021/01/03 01:32:51;;;;;;;96.85;58.65;;;;;;;3.11;87.17;100573.44;1668581;84;26290;-81
2021/01/03 01:35:23;;;;;;;103.62;57.55;;;;;;;3.12;87.26;100573.78;1672887;84;25728;-81
2021/01/03 01:37:49;;;;;;;104.50;58.13;;;;;;;3.13;87.21;100574.12;1673076;84;26191;-81
2021/01/03 01:40:20;;;;;;;94.03;55.63;;;;;;;3.13;87.19;100570.72;1663209;86;26419;-81
2021/01/03 01:42:47;;;;;;;90.85;54.53;;;;;;;3.14;87.27;100574.50;1665720;84;25547;-81
2021/01/03 01:45:18;;;;;;;91.40;55.05;;;;;;;3.17;87.27;100579.44;1662923;84;26296;-80
2021/01/03 01:47:49;;;;;;;108.10;57.55;;;;;;;3.18;87.24;100580.25;1667862;84;25810;-81
2021/01/03 01:50:20;;;;;;;104.38;59.10;;;;;;;3.14;86.94;100577.52;1662186;84;26410;-81
2021/01/03 01:52:53;;;;;;;135.05;72.95;;;;;;;3.14;87.17;100578.38;1663870;84;25540;-80
2021/01/03 01:55:27;;;;;;;144.35;71.97;;;;;;;3.16;87.30;100579.06;1663888;84;26445;-81
2021/01/03 01:58:17;;;;;;;134.45;68.20;;;;;;;3.15;87.21;100573.55;1662410;84;25869;-81
2021/01/03 02:00:49;;;;;;;105.67;59.30;;;;;;;3.19;87.33;100572.41;1661957;84;25985;-81
2021/01/03 02:03:33;;;;;;;92.25;55.83;;;;;;;3.22;87.25;100570.04;1663407;84;26437;-80
2021/01/03 02:06:33;;;;;;;107.12;62.58;;;;;;;3.20;87.15;100566.30;1664203;83;26008;-81
2021/01/03 02:09:07;;;;;;;104.47;60.75;;;;;;;3.19;87.10;100567.69;1664512;84;26691;-82
2021/01/03 02:11:34;;;;;;;106.95;61.65;;;;;;;3.18;87.20;100568.63;1666154;83;26551;-81
2021/01/03 02:14:04;;;;;;;96.97;57.60;;;;;;;3.15;87.20;100563.22;1675918;83;25843;-80
2021/01/03 02:16:34;;;;;;;117.30;66.97;;;;;;;3.14;87.18;100559.00;1684280;83;26436;-82
2021/01/03 02:19:02;;;;;;;95.67;57.88;;;;;;;3.08;87.16;100560.28;1677007;83;25854;-80
2021/01/03 02:21:43;;;;;;;93.37;54.85;;;;;;;3.07;87.21;100561.66;1672949;83;26408;-81
2021/01/03 02:24:26;;;;;;;92.10;55.55;;;;;;;3.02;86.99;100556.01;1675923;83;25779;-81
2021/01/03 02:27:09;;;;;;;80.67;51.28;;;;;;;3.02;87.19;100555.53;1675554;83;26390;-82
2021/01/03 02:29:38;;;;;;;86.40;51.45;;;;;;;3.04;87.28;100560.13;1658759;83;25799;-82
2021/01/03 02:32:07;;;;;;;73.52;48.98;;;;;;;3.10;87.36;100559.67;1677186;83;25671;-80
2021/01/03 02:34:39;;;;;;;80.80;48.95;;;;;;;3.10;87.15;100560.14;1682044;83;25822;-81
2021/01/03 02:37:10;;;;;;;79.17;49.73;;;;;;;3.10;87.12;100558.86;1678376;83;25862;-81
2021/01/03 02:39:54;;;;;;;71.77;47.67;;;;;;;3.13;86.84;100559.10;1683132;83;25307;-81
2021/01/03 02:42:29;;;;;;;72.25;46.50;;;;;;;3.13;86.84;100559.10;1690084;83;25850;-82
2021/01/03 02:44:56;;;;;;;71.92;47.33;;;;;;;3.07;86.72;100559.08;1681360;83;25864;-81
2021/01/03 02:47:27;;;;;;;80.90;48.28;;;;;;;3.09;86.84;100558.04;1674416;83;26412;-81
2021/01/03 02:49:53;;;;;;;77.67;48.23;;;;;;;3.08;86.78;100555.55;1676732;83;26415;-81
2021/01/03 02:52:33;;;;;;;81.70;50.08;;;;;;;3.06;86.78;100560.03;1681181;83;25774;-80
2021/01/03 02:54:59;;;;;;;79.00;51.00;;;;;;;3.08;86.92;100560.72;1681533;83;25837;-80
2021/01/03 02:57:26;;;;;;;77.47;49.83;;;;;;;3.06;86.83;100549.70;1672961;83;26359;-80
2021/01/03 02:59:52;;;;;;;83.67;52.33;;;;;;;3.05;86.71;100542.88;1674327;83;25851;-81
2021/01/03 03:02:19;;;;;;;85.57;50.85;;;;;;;2.99;86.86;100538.98;1689052;83;26002;-82
2021/01/03 03:04:47;;;;;;;83.47;51.13;;;;;;;2.92;86.81;100531.34;1679727;83;25886;-81
2021/01/03 03:07:14;;;;;;;77.85;45.52;;;;;;;2.94;86.97;100528.64;1671751;83;26289;-80
2021/01/03 03:09:40;;;;;;;77.30;47.60;;;;;;;2.96;87.05;100525.48;1679731;83;26340;-81
2021/01/03 03:12:07;;;;;;;76.97;46.95;;;;;;;2.96;87.09;100525.01;1674878;83;26328;-81
2021/01/03 03:14:34;;;;;;;76.12;46.50;;;;;;;2.97;87.07;100518.90;1655143;85;25963;-81
2021/01/03 03:17:04;;;;;;;74.97;48.42;;;;;;;2.97;87.07;100518.90;1691280;83;25819;-81
2021/01/03 03:19:31;;;;;;;70.25;44.60;;;;;;;2.99;87.14;100510.58;1681834;83;25769;-82
2021/01/03 03:21:57;;;;;;;72.42;44.85;;;;;;;3.02;87.12;100502.61;1680431;83;25799;-82
2021/01/03 03:24:24;;;;;;;71.75;45.73;;;;;;;3.02;87.00;100507.77;1681301;83;26373;-81
2021/01/03 03:26:56;;;;;;;74.35;46.83;;;;;;;3.00;86.97;100501.92;1671751;83;25751;-81
2021/01/03 03:29:24;;;;;;;75.67;47.03;;;;;;;3.01;86.97;100500.16;1680390;83;26308;-81
2021/01/03 03:31:52;;;;;;;73.20;46.42;;;;;;;2.99;86.98;100509.77;1681458;83;26372;-81
2021/01/03 03:34:21;;;;;;;69.95;43.40;;;;;;;3.01;86.99;100501.45;1682297;83;26420;-81
2021/01/03 03:36:53;;;;;;;68.62;45.23;;;;;;;3.01;86.97;100489.35;1682759;83;25802;-81
2021/01/03 03:39:19;;;;;;;79.92;47.17;;;;;;;3.00;86.96;100490.74;1680693;83;25830;-80
2021/01/03 03:41:46;;;;;;;73.47;46.23;;;;;;;2.99;86.84;100498.14;1677706;83;25765;-81
2021/01/03 03:44:12;;;;;;;77.58;46.35;;;;;;;2.99;87.02;100495.56;1683807;83;27040;-80
2021/01/03 03:46:39;;;;;;;79.10;47.45;;;;;;;2.99;87.07;100495.56;1689115;83;26544;-81
2021/01/03 03:49:05;;;;;;;81.82;49.13;;;;;;;2.96;87.26;100487.58;1680817;83;26270;-81
2021/01/03 03:51:32;;;;;;;73.65;46.02;;;;;;;2.92;87.08;100485.32;1679639;83;25421;-81
2021/01/03 03:53:58;;;;;;;69.60;45.60;;;;;;;2.92;87.25;100487.91;1682746;83;26024;-80
2021/01/03 03:56:24;;;;;;;75.55;44.20;;;;;;;2.83;87.45;100472.62;1686099;83;26737;-81
2021/01/03 03:58:51;;;;;;;74.12;46.28;;;;;;;2.83;87.45;100472.62;1679946;83;25687;-81
2021/01/03 04:01:17;;;;;;;72.60;46.85;;;;;;;2.97;87.47;100492.27;1687564;83;26356;-81
2021/01/03 04:03:44;;;;;;;72.62;46.55;;;;;;;2.99;87.37;100491.22;1662184;83;25664;-82
2021/01/03 04:06:10;;;;;;;75.50;44.77;;;;;;;2.93;87.37;100474.89;1683685;83;26645;-81
2021/01/03 04:08:38;;;;;;;72.40;44.25;;;;;;;3.03;87.19;100485.38;1686102;83;25860;-81
2021/01/03 04:11:04;;;;;;;67.92;42.33;;;;;;;3.03;87.19;100485.38;1686358;83;26665;-81
2021/01/03 04:13:31;;;;;;;64.22;42.83;;;;;;;3.07;87.42;100486.78;1676079;83;25834;-82
2021/01/03 04:15:57;;;;;;;66.67;43.08;;;;;;;3.10;87.21;100478.80;1678042;84;25836;-82
2021/01/03 04:18:23;;;;;;;68.67;43.13;;;;;;;3.14;87.43;100470.36;1667992;84;25893;-80
2021/01/03 04:20:50;;;;;;;61.42;39.65;;;;;;;3.14;87.43;100470.36;1671864;84;25793;-81
2021/01/03 04:23:17;;;;;;;67.30;41.37;;;;;;;3.13;87.10;100479.87;1633993;85;25846;-80
2021/01/03 04:25:43;;;;;;;61.37;39.73;;;;;;;3.13;87.09;100477.76;1637297;85;26007;-82
2021/01/03 04:28:09;;;;;;;61.60;39.88;;;;;;;3.11;87.09;100464.50;1637475;85;25832;-80
2021/01/03 04:30:36;;;;;;;70.00;41.68;;;;;;;3.13;87.09;100469.53;1629595;85;25897;-81
2021/01/03 04:33:02;;;;;;;64.70;42.73;;;;;;;3.08;87.08;100463.45;1636052;85;26408;-80
2021/01/03 04:35:28;;;;;;;71.87;41.42;;;;;;;3.09;87.16;100459.91;1688421;84;26289;-82
2021/01/03 04:37:55;;;;;;;63.17;40.88;;;;;;;3.07;87.19;100466.12;1671699;84;26306;-82
2021/01/03 04:40:29;;;;;;;67.05;41.95;;;;;;;3.06;87.21;100465.31;1668177;84;26418;-81
2021/01/03 04:43:00;;;;;;;63.42;42.35;;;;;;;3.02;87.19;100463.87;1661283;84;25726;-82
2021/01/03 04:45:35;;;;;;;65.32;40.17;;;;;;;2.89;87.39;100449.78;1661275;84;25838;-81
2021/01/03 04:48:08;;;;;;;56.08;38.60;;;;;;;2.89;87.39;100449.78;1657840;84;26415;-81
2021/01/03 04:50:40;;;;;;;57.55;37.35;;;;;;;3.04;87.43;100475.39;1672797;84;25864;-81
2021/01/03 04:53:56;;;;;;;62.73;37.78;;;;;;;3.03;87.33;100477.16;1631406;85;26692;-81
2021/01/03 04:56:43;;;;;;;53.10;34.90;;;;;;;3.02;87.30;100474.67;1633675;85;25807;-82
2021/01/03 04:59:33;;;;;;;56.00;35.90;;;;;;;3.07;87.68;100481.63;1642611;85;25939;-82
2021/01/03 05:02:23;;;;;;;57.88;37.42;;;;;;;3.07;87.68;100481.63;1659342;84;25713;-81
2021/01/03 05:05:13;;;;;;;59.77;36.03;;;;;;;2.99;87.15;100472.33;1652348;84;25818;-81
2021/01/03 05:07:44;;;;;;;57.53;34.83;;;;;;;2.98;87.31;100470.70;1674811;84;26296;-81
2021/01/03 05:10:21;;;;;;;57.27;36.48;;;;;;;2.97;87.53;100465.16;1667758;84;25694;-82
2021/01/03 05:13:21;;;;;;;57.17;36.68;;;;;;;2.97;87.53;100465.16;1671099;84;26506;-81
2021/01/03 05:15:48;;;;;;;54.30;34.25;;;;;;;3.03;87.25;100477.64;1677017;83;25780;-81
2021/01/03 05:18:15;;;;;;;54.18;34.67;;;;;;;3.03;87.25;100477.64;1673183;84;25782;-81
2021/01/03 05:20:42;;;;;;;56.05;36.00;;;;;;;3.06;87.47;100481.28;1678987;83;25719;-82
2021/01/03 05:23:22;;;;;;;59.35;36.75;;;;;;;3.08;87.43;100485.84;1680218;83;25912;-80
2021/01/03 05:25:52;;;;;;;54.48;36.38;;;;;;;3.00;87.46;100466.22;1685224;83;26427;-82
2021/01/03 05:28:27;;;;;;;55.45;38.80;;;;;;;3.14;87.44;100487.14;1683251;83;25852;-81
2021/01/03 05:31:12;;;;;;;58.52;37.10;;;;;;;3.17;87.41;100489.52;1685249;83;25748;-81
2021/01/03 05:33:49;;;;;;;56.33;36.35;;;;;;;3.14;87.25;100487.98;1685839;83;25986;-81
2021/01/03 05:36:44;;;;;;;50.95;35.33;;;;;;;3.14;87.25;100487.98;1683658;83;25717;-80
2021/01/03 05:39:22;;;;;;;53.17;36.05;;;;;;;3.07;87.13;100494.53;1681548;83;25742;-81
2021/01/03 05:42:06;;;;;;;56.33;36.28;;;;;;;3.04;87.15;100487.02;1681165;83;26334;-82
2021/01/03 05:44:36;;;;;;;55.45;34.65;;;;;;;3.02;87.18;100484.53;1680422;83;25848;-80
2021/01/03 05:47:20;;;;;;;50.70;33.10;;;;;;;3.00;87.15;100483.84;1682810;83;25710;-81
2021/01/03 05:49:51;;;;;;;50.17;33.33;;;;;;;2.97;87.09;100484.05;1667862;83;26037;-82
2021/01/03 05:52:30;;;;;;;50.05;32.63;;;;;;;2.94;87.00;100477.82;1678182;83;26398;-81
2021/01/03 05:55:04;;;;;;;44.15;30.48;;;;;;;2.89;86.98;100479.91;1681311;83;25657;-81
2021/01/03 05:57:34;;;;;;;47.27;31.82;;;;;;;2.89;86.98;100479.91;1681415;83;25686;-81
2021/01/03 06:00:26;;;;;;;47.48;31.45;;;;;;;2.91;87.05;100483.69;1693643;83;25797;-81
2021/01/03 06:02:53;;;;;;;47.05;31.48;;;;;;;2.92;87.01;100480.16;1678095;83;25717;-81
2021/01/03 06:05:24;;;;;;;45.90;31.20;;;;;;;2.79;87.07;100455.27;1682316;83;26424;-80
2021/01/03 06:08:10;;;;;;;46.23;30.90;;;;;;;2.87;86.85;100468.90;1680322;83;25776;-81
2021/01/03 06:10:40;;;;;;;50.48;31.33;;;;;;;2.84;86.94;100462.20;1688592;83;25747;-81
2021/01/03 06:13:11;;;;;;;49.27;31.05;;;;;;;2.85;87.04;100466.42;1684805;83;25759;-81
2021/01/03 06:15:46;;;;;;;46.70;31.40;;;;;;;2.87;87.07;100472.77;1662763;84;25321;-80
2021/01/03 06:18:17;;;;;;;48.10;30.60;;;;;;;2.76;87.16;100456.78;1634203;85;26569;-81
2021/01/03 06:20:44;;;;;;;44.98;30.70;;;;;;;2.76;87.16;100456.78;1632081;85;25888;-81
2021/01/03 06:23:19;;;;;;;44.93;29.75;;;;;;;2.92;87.13;100481.45;1636033;86;25942;-81
2021/01/03 06:25:54;;;;;;;45.73;30.35;;;;;;;2.86;87.04;100465.95;1636971;87;26552;-80
2021/01/03 06:28:28;;;;;;;39.63;28.57;;;;;;;2.89;87.21;100461.41;1634400;85;25769;-82
2021/01/03 06:31:36;;;;;;;43.60;29.23;;;;;;;2.98;87.08;100486.19;1633750;87;26431;-81
2021/01/03 06:34:20;;;;;;;44.58;29.18;;;;;;;2.94;87.13;100482.17;1632682;85;25767;-84
2021/01/03 06:37:10;;;;;;;44.67;28.35;;;;;;;2.90;86.93;100481.58;1634583;85;25839;-81
2021/01/03 06:40:22;;;;;;;40.38;28.85;;;;;;;2.84;87.14;100478.16;1634639;85;26416;-83
2021/01/03 06:43:16;;;;;;;43.52;27.48;;;;;;;2.85;87.31;100478.03;1638239;85;25864;-82
2021/01/03 06:46:30;;;;;;;43.45;28.45;;;;;;;2.80;87.20;100468.51;1635046;85;25774;-81
2021/01/03 06:49:23;;;;;;;43.20;29.45;;;;;;;2.74;87.25;100458.64;1633737;87;25859;-81
2021/01/03 06:52:19;;;;;;;43.00;27.93;;;;;;;2.73;87.37;100466.48;1636519;85;25887;-81
2021/01/03 06:55:16;;;;;;;42.70;27.98;;;;;;;2.75;87.13;100457.70;1639759;85;25855;-83
2021/01/03 06:58:41;;;;;;;43.40;27.30;;;;;;;2.75;87.13;100457.70;1624916;86;25929;-81
2021/01/03 07:01:34;;;;;;;40.83;27.90;;;;;;;2.74;87.43;100475.89;1625484;86;25973;-82
2021/01/03 07:04:05;;;;;;;39.33;27.02;;;;;;;2.64;87.88;100460.24;1626698;86;25364;-81
2021/01/03 07:06:37;;;;;;;47.10;28.47;;;;;;;2.79;87.63;100487.52;1622989;86;26057;-81
2021/01/03 07:09:12;;;;;;;43.20;29.90;;;;;;;2.83;87.18;100491.52;1628123;86;25675;-82
2021/01/03 07:11:49;;;;;;;41.40;29.37;;;;;;;2.83;87.18;100491.52;1627822;86;26021;-81
2021/01/03 07:14:26;;;;;;;40.95;29.23;;;;;;;2.82;87.47;100486.01;1625282;86;25985;-83
2021/01/03 07:17:09;;;;;;;42.35;29.90;;;;;;;2.82;87.47;100486.01;1625539;86;25794;-80
2021/01/03 07:19:47;;;;;;;45.55;29.72;;;;;;;2.83;87.51;100485.06;1625073;86;25953;-82
2021/01/03 07:22:30;;;;;;;46.92;30.52;;;;;;;2.89;87.59;100500.56;1625871;86;25543;-81
2021/01/03 07:25:05;;;;;;;48.42;30.70;;;;;;;2.92;87.54;100506.82;1604407;86;26012;-82
2021/01/03 07:27:38;;;;;;;44.53;30.97;;;;;;;2.81;87.43;100491.27;1623114;86;25859;-82
2021/01/03 07:30:10;;;;;;;53.95;33.90;;;;;;;2.96;87.46;100512.58;1623473;86;25952;-83
2021/01/03 07:32:48;;;;;;;45.50;31.48;;;;;;;2.96;87.42;100513.86;1628018;86;25974;-82
2021/01/03 07:35:26;;;;;;;48.70;31.73;;;;;;;2.94;87.44;100503.64;1660580;86;25848;-82
2021/01/03 07:37:56;;;;;;;46.23;30.65;;;;;;;2.99;87.46;100508.00;1664114;84;26536;-81
2021/01/03 07:40:24;;;;;;;;;;;;;;;2.98;87.29;100508.13;1662211;84;26434;-82
2021/01/03 07:43:02;;;;;;;46.98;30.15;;;;;;;2.98;87.46;100506.36;1664927;84;25837;-81
2021/01/03 07:45:40;;;;;;;46.02;30.17;;;;;;;2.99;87.50;100517.03;1664728;84;25766;-83
2021/01/03 07:48:33;;;;;;;44.25;30.43;;;;;;;2.98;87.51;100523.14;1664549;84;26315;-82
2021/01/03 07:51:00;;;;;;;43.30;28.73;;;;;;;2.96;87.33;100511.28;1638343;85;26078;-82
2021/01/03 07:53:34;;;;;;;44.85;29.57;;;;;;;2.96;87.33;100511.28;1641537;85;25890;-81
2021/01/03 07:56:30;;;;;;;40.23;29.15;;;;;;;2.95;87.49;100507.88;1640051;85;25940;-82
2021/01/03 07:58:58;;;;;;;41.63;26.55;;;;;;;2.99;87.57;100496.86;1640098;85;25834;-81
2021/01/03 08:01:36;;;;;;;39.92;28.05;;;;;;;3.01;87.57;100489.83;1635182;85;26269;-83
2021/01/03 08:04:28;;;;;;;38.17;28.35;;;;;;;2.93;87.45;100474.08;1646998;85;25968;-81
2021/01/03 08:07:08;;;;;;;39.92;26.35;;;;;;;2.93;87.45;100474.08;1641696;85;26460;-83
2021/01/03 08:09:37;;;;;;;37.23;26.17;;;;;;;2.94;87.41;100471.84;1642233;85;26452;-81
2021/01/03 08:12:21;;;;;;;40.55;28.83;;;;;;;2.97;87.56;100474.19;1644185;85;26039;-82
2021/01/03 08:14:50;;;;;;;40.12;28.42;;;;;;;3.00;87.57;100478.69;1645309;85;25922;-82
2021/01/03 08:17:23;;;;;;;40.58;27.40;;;;;;;3.02;87.58;100474.20;1646454;85;25972;-82
2021/01/03 08:19:50;;;;;;;38.08;26.97;;;;;;;3.05;87.49;100479.61;1649212;85;26474;-81
2021/01/03 08:22:26;;;;;;;40.23;28.20;;;;;;;2.93;87.48;100462.46;1670698;83;26546;-82
2021/01/03 08:24:56;;;;;;;37.53;26.52;;;;;;;3.11;87.54;100484.34;1686101;83;25754;-82
2021/01/03 08:27:40;;;;;;;42.62;29.15;;;;;;;3.12;87.44;100483.40;1683443;83;25855;-82
2021/01/03 08:30:12;;;;;;;39.45;27.37;;;;;;;3.16;87.55;100478.81;1681654;83;26539;-82
2021/01/03 08:32:40;;;;;;;38.90;27.27;;;;;;;3.10;87.47;100459.44;1689496;83;25741;-83
2021/01/03 08:35:15;;;;;;;39.15;27.87;;;;;;;3.24;87.54;100487.63;1688084;83;25738;-82
2021/01/03 08:37:47;;;;;;;37.42;27.80;;;;;;;3.09;87.48;100463.79;1688752;83;25956;-82
2021/01/03 08:40:31;;;;;;;43.35;29.98;;;;;;;3.34;87.52;100501.98;1681374;83;26670;-81
2021/01/03 08:43:03;;;;;;;44.77;29.02;;;;;;;3.35;87.35;100507.50;1682290;83;25873;-81
2021/01/03 08:45:39;;;;;;;40.85;28.25;;;;;;;3.37;87.39;100504.34;1672058;83;26499;-81
2021/01/03 08:48:22;;;;;;;39.70;28.73;;;;;;;3.22;87.46;100479.64;1684754;83;26367;-82
2021/01/03 08:50:51;;;;;;;40.52;27.40;;;;;;;3.39;87.37;100514.09;1681242;83;25828;-83
2021/01/03 08:53:24;;;;;;;39.78;27.82;;;;;;;3.39;87.37;100514.09;1680860;83;25853;-81
2021/01/03 08:56:02;;;;;;;39.05;27.62;;;;;;;3.35;87.16;100501.04;1683931;83;25727;-82
2021/01/03 08:58:36;;;;;;;39.80;26.73;;;;;;;3.32;87.24;100503.38;1681775;83;26299;-81
2021/01/03 09:01:04;;;;;;;32.40;25.40;;;;;;;3.22;87.35;100475.33;1682045;83;25822;-83
2021/01/03 09:03:33;;;;;;;36.38;25.45;;;;;;;3.30;87.44;100481.19;1682763;83;25887;-81
2021/01/03 09:06:01;;;;;;;35.10;25.10;;;;;;;3.36;87.30;100491.08;1680112;83;25799;-81
2021/01/03 09:08:34;;;;;;;34.60;23.95;;;;;;;3.37;87.33;100484.15;1687791;83;25830;-82
2021/01/03 09:11:27;;;;;;;34.80;24.30;;;;;;;3.37;87.17;100482.85;1688278;83;26450;-82
2021/01/03 09:14:20;;;;;;;34.58;24.50;;;;;;;3.38;87.05;100480.14;1685492;83;25520;-81
2021/01/03 09:17:10;;;;;;;33.80;22.62;;;;;;;3.38;87.05;100480.14;1659695;83;26396;-80
2021/01/03 09:20:15;;;;;;;38.13;25.97;;;;;;;3.44;87.23;100478.41;1674557;83;25856;-81
2021/01/03 09:22:54;;;;;;;34.45;24.12;;;;;;;3.43;87.16;100483.67;1673306;84;25719;-81
2021/01/03 09:25:28;;;;;;;33.93;25.03;;;;;;;3.46;87.18;100481.67;1672007;83;25822;-82
2021/01/03 09:27:58;;;;;;;34.13;22.85;;;;;;;3.48;87.26;100481.57;1678399;83;25800;-82
2021/01/03 09:30:32;;;;;;;35.23;24.80;;;;;;;3.46;87.03;100475.22;1675220;83;25772;-83
2021/01/03 09:33:25;;;;;;;34.53;24.27;;;;;;;3.45;87.02;100472.77;1676344;83;26705;-81
2021/01/03 09:36:32;;;;;;;37.08;25.57;;;;;;;3.47;87.02;100461.85;1607139;87;26096;-82
2021/01/03 09:39:46;;;;;;;34.95;23.60;;;;;;;3.48;86.91;100460.91;1535954;91;25791;-82
2021/01/03 09:42:43;;;;;;;34.38;24.92;;;;;;;3.51;87.03;100465.36;1536292;91;25865;-82
2021/01/03 09:45:37;;;;;;;36.42;25.88;;;;;;;3.58;87.04;100472.66;1518205;91;25892;-81
2021/01/03 09:48:05;;;;;;;35.52;24.85;;;;;;;3.62;87.09;100476.17;1537833;91;26002;-80
2021/01/03 09:50:46;;;;;;;35.05;25.30;;;;;;;3.67;87.01;100461.61;1539485;91;25852;-81
2021/01/03 09:53:29;;;;;;;37.17;26.52;;;;;;;3.64;86.64;100460.56;1485608;94;25942;-82
2021/01/03 09:56:09;;;;;;;38.02;26.97;;;;;;;3.62;86.75;100454.67;1488075;94;25703;-82
2021/01/03 09:58:45;;;;;;;37.42;25.52;;;;;;;3.61;86.82;100449.98;1486959;94;25823;-80
2021/01/03 10:01:32;;;;;;;38.30;25.92;;;;;;;3.62;86.73;100455.49;1488328;94;26093;-81
2021/01/03 10:04:22;;;;;;;37.50;25.85;;;;;;;3.62;86.79;100451.62;1492133;94;25789;-80
2021/01/03 10:07:11;;;;;;;37.20;25.12;;;;;;;3.53;86.58;100422.62;1491366;94;25858;-81
2021/01/03 10:09:37;;;;;;;33.33;24.02;;;;;;;3.53;86.58;100422.62;1499770;92;26011;-82
2021/01/03 10:12:32;;;;;;;35.38;23.60;;;;;;;3.64;86.84;100443.28;1533125;92;26420;-82
2021/01/03 10:15:25;;;;;;;32.28;23.75;;;;;;;3.67;86.85;100443.05;1521096;92;25854;-80
2021/01/03 10:18:01;;;;;;;33.38;23.67;;;;;;;3.71;86.80;100443.62;1569101;89;25866;-83
2021/01/03 10:20:48;;;;;;;33.67;23.50;;;;;;;3.72;86.63;100433.65;1566650;89;27084;-81
2021/01/03 10:23:39;;;;;;;39.05;24.92;;;;;;;3.73;86.50;100438.69;1568431;89;25941;-81
2021/01/03 10:26:29;;;;;;;32.33;23.25;;;;;;;3.61;86.46;100416.86;1567644;89;25419;-81
2021/01/03 10:28:55;;;;;;;34.67;24.00;;;;;;;3.61;86.46;100416.86;1567118;89;25440;-82
2021/01/03 10:31:24;;;;;;;30.92;23.70;;;;;;;3.71;86.33;100435.86;1566041;89;26546;-82
2021/01/03 10:33:51;;;;;;;31.40;22.67;;;;;;;3.73;86.36;100434.80;1552664;90;26103;-83
2021/01/03 10:36:25;;;;;;;31.35;22.15;;;;;;;3.75;86.28;100435.52;1569413;89;26526;-82
2021/01/03 10:38:51;;;;;;;36.55;25.08;;;;;;;3.81;86.48;100438.09;1567138;89;25766;-81
2021/01/03 10:41:17;;;;;;;36.00;24.87;;;;;;;3.87;86.49;100443.25;1572274;89;25862;-82
2021/01/03 10:43:47;;;;;;;37.90;25.55;;;;;;;3.89;86.18;100442.67;1543084;91;25870;-82
2021/01/03 10:46:17;;;;;;;35.70;23.85;;;;;;;3.85;86.11;100439.98;1559265;90;26533;-83
2021/01/03 10:48:43;;;;;;;37.73;26.80;;;;;;;3.89;86.27;100445.26;1558725;90;25935;-83
2021/01/03 10:51:10;;;;;;;36.70;26.35;;;;;;;3.94;86.38;100444.44;1627720;86;25963;-83
2021/01/03 10:53:39;;;;;;;36.13;25.32;;;;;;;3.99;86.41;100444.42;1636700;86;26291;-82
2021/01/03 10:56:07;;;;;;;36.38;24.07;;;;;;;3.99;86.23;100441.02;1646577;85;26528;-83
2021/01/03 10:58:34;;;;;;;31.87;23.62;;;;;;;4.02;86.36;100438.66;1635818;86;26818;-83
2021/01/03 11:01:00;;;;;;;32.38;23.90;;;;;;;4.06;86.39;100435.70;1651317;85;25886;-82
2021/01/03 11:03:26;;;;;;;31.45;22.85;;;;;;;4.08;86.16;100430.41;1647702;85;25968;-83
2021/01/03 11:05:53;;;;;;;33.80;23.18;;;;;;;4.10;86.16;100429.83;1646966;85;25845;-80
2021/01/03 11:08:21;;;;;;;38.25;25.27;;;;;;;4.15;86.16;100423.83;1647715;85;25816;-82
2021/01/03 11:10:48;;;;;;;33.58;23.60;;;;;;;4.18;86.17;100419.22;1648004;85;25823;-81
2021/01/03 11:13:14;;;;;;;34.08;23.60;;;;;;;4.22;86.09;100422.38;1648985;85;26102;-81
2021/01/03 11:15:41;;;;;;;38.50;25.32;;;;;;;4.28;86.07;100421.06;1654352;85;25808;-82
2021/01/03 11:18:07;;;;;;;53.75;35.70;;;;;;;4.30;85.93;100422.58;1648559;85;25816;-82
2021/01/03 11:20:36;;;;;;;45.15;30.12;;;;;;;4.35;85.97;100434.68;1631384;85;25766;-83
2021/01/03 11:23:02;;;;;;;44.42;32.13;;;;;;;4.42;86.03;100437.62;1651706;85;26694;-83
2021/01/03 11:25:32;;;;;;;42.78;30.10;;;;;;;4.44;85.90;100432.64;1653564;85;25948;-83
2021/01/03 11:27:58;;;;;;;60.05;37.73;;;;;;;4.43;85.65;100428.41;1653636;85;25940;-84
2021/01/03 11:30:25;;;;;;;55.58;37.83;;;;;;;4.39;85.41;100427.03;1608951;87;25952;-83
2021/01/03 11:32:51;;;;;;;84.72;51.92;;;;;;;4.35;85.41;100431.28;1652970;85;26582;-85
2021/01/03 11:35:18;;;;;;;79.53;48.30;;;;;;;4.34;85.53;100432.23;1649492;85;26428;-82
2021/01/03 11:37:48;;;;;;;41.30;28.25;;;;;;;4.31;85.54;100434.59;1633823;86;25865;-83
2021/01/03 11:40:15;;;;;;;42.78;27.42;;;;;;;4.34;85.55;100431.76;1648328;85;25373;-84
2021/01/03 11:42:41;;;;;;;104.97;63.98;;;;;;;4.36;85.63;100430.33;1649206;85;25999;-83
2021/01/03 11:45:13;;;;;;;190.40;113.22;;;;;;;4.37;85.43;100426.81;1636501;85;26465;-83
2021/01/03 11:47:39;;;;;;;51.92;34.13;;;;;;;4.35;85.27;100417.86;1653130;85;25852;-82
2021/01/03 11:50:11;;;;;;;55.30;40.78;;;;;;;4.35;85.32;100420.45;1649983;85;25970;-82